Time;durP1;ratioP1;P1;durP2;ratioP2;P2;SDS_P1;SDS_P2;PMS_P1;PMS_P2;Temp;Humidity;BMP_temperature;BMP_pressure;BME280_temperature;BME280_humidity;BME280_pressure;Samples;Min_cycle;Max_cycle;Signal;HPM_P1;HPM_P2
2021/10/05 00:01:34;;;;;;;8.23;5.93;;;14.70;99.90;;;;;;5043030;28;20234;-71
2021/10/05 00:04:00;;;;;;;8.00;6.57;;;14.70;99.90;;;;;;5068737;28;20575;-70
2021/10/05 00:06:26;;;;;;;7.13;5.70;;;14.70;99.90;;;;;;5051732;28;20541;-70
2021/10/05 00:08:52;;;;;;;5.83;5.10;;;14.70;99.90;;;;;;5035505;28;20231;-70
2021/10/05 00:11:18;;;;;;;9.37;5.87;;;14.70;99.90;;;;;;5040803;28;20450;-71
2021/10/05 00:13:44;;;;;;;7.60;6.00;;;14.70;99.90;;;;;;5029117;28;20460;-70
2021/10/05 00:16:10;;;;;;;6.77;6.00;;;14.70;99.90;;;;;;5068692;28;20223;-70
2021/10/05 00:18:36;;;;;;;8.60;6.00;;;14.70;99.90;;;;;;5040449;28;20457;-70
2021/10/05 00:21:04;;;;;;;8.40;6.73;;;14.70;99.90;;;;;;5036411;28;20227;-70
2021/10/05 00:23:29;;;;;;;9.30;6.77;;;14.70;99.90;;;;;;5034333;28;20458;-70
2021/10/05 00:25:55;;;;;;;8.07;5.93;;;14.60;99.90;;;;;;5031622;28;20522;-70
2021/10/05 00:28:21;;;;;;;7.47;6.20;;;14.60;99.90;;;;;;5043297;28;20234;-71
2021/10/05 00:30:46;;;;;;;7.00;6.30;;;14.60;99.90;;;;;;5036252;28;20207;-70
2021/10/05 00:33:12;;;;;;;7.43;6.13;;;14.60;99.90;;;;;;5052051;28;20226;-71
2021/10/05 00:35:38;;;;;;;8.60;6.40;;;14.60;99.90;;;;;;5033962;28;20276;-71
2021/10/05 00:38:04;;;;;;;12.60;7.43;;;14.60;99.90;;;;;;5051851;28;20310;-71
2021/10/05 00:40:29;;;;;;;9.17;6.27;;;14.60;99.90;;;;;;5051565;28;20302;-70
2021/10/05 00:42:55;;;;;;;8.00;6.07;;;14.60;99.90;;;;;;5069022;28;20262;-70
2021/10/05 00:45:21;;;;;;;7.70;6.47;;;14.60;99.90;;;;;;5044071;28;20265;-70
2021/10/05 00:47:46;;;;;;;9.60;7.67;;;14.60;99.90;;;;;;5035047;28;20256;-70
2021/10/05 00:50:15;;;;;;;8.93;6.47;;;14.60;99.90;;;;;;5068046;28;20589;-70
2021/10/05 00:52:43;;;;;;;8.90;7.30;;;14.60;99.90;;;;;;5062903;28;20215;-70
2021/10/05 00:55:10;;;;;;;8.10;5.73;;;14.60;99.90;;;;;;5051883;28;20473;-71
2021/10/05 00:57:35;;;;;;;9.63;7.50;;;14.60;99.90;;;;;;5048989;28;20552;-71
2021/10/05 01:00:04;;;;;;;15.70;8.00;;;14.60;99.90;;;;;;5053288;28;20544;-71
2021/10/05 01:02:30;;;;;;;13.30;8.47;;;14.60;99.90;;;;;;5065055;28;20211;-71
2021/10/05 01:04:55;;;;;;;11.50;8.27;;;14.50;99.90;;;;;;5067780;28;20464;-70
2021/10/05 01:07:21;;;;;;;12.93;8.57;;;14.50;99.90;;;;;;5060776;28;20228;-70
2021/10/05 01:09:47;;;;;;;11.90;8.47;;;14.50;99.90;;;;;;5029659;28;20223;-71
2021/10/05 01:12:13;;;;;;;16.10;9.10;;;14.50;99.90;;;;;;5047904;28;20685;-70
2021/10/05 01:14:39;;;;;;;11.73;8.30;;;14.50;99.90;;;;;;5048590;28;20461;-70
2021/10/05 01:17:07;;;;;;;11.83;8.30;;;14.50;99.90;;;;;;5050084;28;20837;-71
2021/10/05 01:19:33;;;;;;;11.20;7.90;;;14.50;99.90;;;;;;5050347;28;21064;-70
2021/10/05 01:21:58;;;;;;;10.20;7.80;;;14.50;99.90;;;;;;5034511;28;20471;-70
2021/10/05 01:24:25;;;;;;;11.77;8.47;;;14.50;99.90;;;;;;5044920;28;20454;-68
2021/10/05 01:26:55;;;;;;;12.63;8.83;;;14.50;99.90;;;;;;5045147;28;20284;-70
2021/10/05 01:29:24;;;;;;;13.70;9.47;;;14.50;99.90;;;;;;5034409;28;20465;-70
2021/10/05 01:31:52;;;;;;;17.83;10.90;;;14.50;99.90;;;;;;5034144;28;20446;-70
2021/10/05 01:34:20;;;;;;;13.70;9.30;;;14.50;99.90;;;;;;5048970;28;20481;-70
2021/10/05 01:36:47;;;;;;;14.80;10.90;;;14.50;99.90;;;;;;5030299;28;20461;-70
2021/10/05 01:39:25;;;;;;;14.33;9.80;;;14.50;99.90;;;;;;5047071;28;20844;-70
2021/10/05 01:41:53;;;;;;;17.90;11.37;;;14.50;99.90;;;;;;5042997;28;20834;-70
2021/10/05 01:44:19;;;;;;;15.23;11.23;;;14.50;99.90;;;;;;5036818;28;20466;-70
2021/10/05 01:46:45;;;;;;;14.37;10.67;;;14.50;99.90;;;;;;5051744;28;20449;-70
2021/10/05 01:49:15;;;;;;;12.30;9.50;;;14.50;99.90;;;;;;5052787;28;20234;-71
2021/10/05 01:51:41;;;;;;;16.03;11.23;;;14.50;99.90;;;;;;5042171;28;20214;-70
2021/10/05 01:54:07;;;;;;;14.67;10.03;;;14.50;99.90;;;;;;5053956;28;20449;-70
2021/10/05 01:56:32;;;;;;;13.97;9.50;;;14.50;99.90;;;;;;5030443;28;20455;-70
2021/10/05 01:58:58;;;;;;;15.93;10.50;;;14.50;99.90;;;;;;5051079;28;20223;-71
2021/10/05 02:01:24;;;;;;;15.67;11.03;;;14.50;99.90;;;;;;5044859;28;20226;-70
2021/10/05 02:03:49;;;;;;;15.17;10.43;;;14.50;99.90;;;;;;5054215;28;20219;-70
2021/10/05 02:06:16;;;;;;;13.80;9.90;;;14.50;99.90;;;;;;5067975;28;20230;-71
2021/10/05 02:08:41;;;;;;;15.27;10.77;;;14.50;99.90;;;;;;5033103;28;20245;-71
2021/10/05 02:11:07;;;;;;;15.60;10.33;;;14.50;99.90;;;;;;5072303;28;20457;-70
2021/10/05 02:13:34;;;;;;;13.87;10.57;;;14.50;99.90;;;;;;5039480;28;20233;-71
2021/10/05 02:16:00;;;;;;;15.93;11.00;;;14.50;99.90;;;;;;5053371;28;20246;-70
2021/10/05 02:18:26;;;;;;;15.43;10.43;;;14.40;99.90;;;;;;5038525;28;20446;-71
2021/10/05 02:20:52;;;;;;;14.83;10.57;;;14.50;99.90;;;;;;5039617;28;20445;-70
2021/10/05 02:23:18;;;;;;;17.63;12.10;;;14.40;99.90;;;;;;5064044;28;20234;-70
2021/10/05 02:25:43;;;;;;;19.17;12.30;;;14.50;99.90;;;;;;5037006;28;20272;-70
2021/10/05 02:28:09;;;;;;;19.00;12.80;;;14.50;99.90;;;;;;5053987;28;20238;-69
2021/10/05 02:30:35;;;;;;;16.97;11.63;;;14.40;99.90;;;;;;5052834;28;20224;-71
2021/10/05 02:33:00;;;;;;;18.73;12.27;;;14.40;99.90;;;;;;5037840;28;20234;-68
2021/10/05 02:35:26;;;;;;;16.90;11.67;;;14.40;99.90;;;;;;5038863;28;20222;-70
2021/10/05 02:37:52;;;;;;;17.30;11.30;;;14.40;99.90;;;;;;5046685;28;20782;-70
2021/10/05 02:40:17;;;;;;;20.13;11.77;;;14.40;99.90;;;;;;5051198;28;20216;-70
2021/10/05 02:42:43;;;;;;;16.67;11.37;;;14.40;99.90;;;;;;5069271;28;20230;-70
2021/10/05 02:45:09;;;;;;;16.97;11.37;;;14.40;99.90;;;;;;5025386;28;20275;-70
2021/10/05 02:47:35;;;;;;;18.77;11.27;;;14.40;99.90;;;;;;5058242;28;20215;-71
2021/10/05 02:50:01;;;;;;;14.30;11.10;;;14.40;99.90;;;;;;5050479;28;20459;-70
2021/10/05 02:52:27;;;;;;;16.87;11.47;;;14.40;99.90;;;;;;5047073;28;20458;-71
2021/10/05 02:54:54;;;;;;;18.40;11.30;;;14.40;99.90;;;;;;5042929;28;20298;-70
2021/10/05 02:57:21;;;;;;;18.43;11.97;;;14.40;99.90;;;;;;5056487;28;20224;-70
2021/10/05 02:59:48;;;;;;;15.40;10.60;;;14.40;99.90;;;;;;5056203;28;20438;-71
2021/10/05 03:02:14;;;;;;;16.63;10.97;;;14.40;99.90;;;;;;5051178;28;20504;-70
2021/10/05 03:04:41;;;;;;;13.80;10.00;;;14.40;99.90;;;;;;5033781;28;20478;-71
2021/10/05 03:07:07;;;;;;;16.10;10.70;;;14.40;99.90;;;;;;5053229;28;20453;-70
2021/10/05 03:09:34;;;;;;;17.47;11.33;;;14.40;99.90;;;;;;5070608;28;20905;-71
2021/10/05 03:12:01;;;;;;;16.17;11.17;;;14.40;99.90;;;;;;5036508;28;20450;-69
2021/10/05 03:14:26;;;;;;;19.63;12.23;;;14.40;99.90;;;;;;5053189;28;20964;-70
2021/10/05 03:16:52;;;;;;;21.27;12.60;;;14.40;99.90;;;;;;5035200;28;20460;-69
2021/10/05 03:19:18;;;;;;;16.50;10.37;;;14.40;99.90;;;;;;5031640;28;20231;-71
2021/10/05 03:21:44;;;;;;;17.40;11.10;;;14.40;99.90;;;;;;5039631;28;20215;-71
2021/10/05 03:24:09;;;;;;;19.57;10.60;;;14.30;99.90;;;;;;5029375;28;20762;-71
2021/10/05 03:26:36;;;;;;;17.27;10.73;;;14.40;99.90;;;;;;5038471;28;20224;-71
2021/10/05 03:29:03;;;;;;;16.67;11.50;;;14.40;99.90;;;;;;5045212;28;20322;-71
2021/10/05 03:31:28;;;;;;;17.67;11.73;;;14.30;99.90;;;;;;5040608;28;20454;-70
2021/10/05 03:33:54;;;;;;;17.03;11.20;;;14.30;99.90;;;;;;5049684;28;20446;-71
2021/10/05 03:36:20;;;;;;;19.33;12.17;;;14.30;99.90;;;;;;5050878;28;20792;-70
2021/10/05 03:38:45;;;;;;;20.77;12.13;;;14.30;99.90;;;;;;5062543;28;20227;-71
2021/10/05 03:41:12;;;;;;;16.20;10.40;;;14.30;99.90;;;;;;5033413;28;20215;-71
2021/10/05 03:43:38;;;;;;;17.00;10.37;;;14.30;99.90;;;;;;5066035;28;20294;-71
2021/10/05 03:46:05;;;;;;;20.80;12.40;;;14.30;99.90;;;;;;5034025;28;20458;-71
2021/10/05 03:48:31;;;;;;;14.57;9.90;;;14.30;99.90;;;;;;5032390;28;20474;-71
2021/10/05 03:50:57;;;;;;;15.80;11.23;;;14.30;99.90;;;;;;5048240;28;20453;-70
2021/10/05 03:53:23;;;;;;;18.60;11.00;;;14.30;99.90;;;;;;5043080;28;20438;-70
2021/10/05 03:55:52;;;;;;;16.57;10.83;;;14.30;99.90;;;;;;5050157;28;20918;-70
2021/10/05 03:58:18;;;;;;;19.53;11.20;;;14.30;99.90;;;;;;5035554;28;20242;-70
2021/10/05 04:00:45;;;;;;;15.43;9.73;;;14.30;99.90;;;;;;5034649;28;20446;-71
2021/10/05 04:03:10;;;;;;;13.60;9.63;;;14.30;99.90;;;;;;5064985;28;20455;-71
2021/10/05 04:05:36;;;;;;;16.27;11.97;;;14.30;99.90;;;;;;5061419;28;20967;-72
2021/10/05 04:08:02;;;;;;;15.00;10.03;;;14.30;99.90;;;;;;5063258;28;20227;-71
2021/10/05 04:10:29;;;;;;;14.40;9.90;;;14.30;99.90;;;;;;5061394;28;20217;-71
2021/10/05 04:12:54;;;;;;;17.17;11.23;;;14.30;99.90;;;;;;5035163;28;20231;-71
2021/10/05 04:15:20;;;;;;;16.27;9.33;;;14.30;99.90;;;;;;5035112;28;20484;-71
2021/10/05 04:17:46;;;;;;;16.50;9.57;;;14.20;99.90;;;;;;5035215;28;20223;-71
2021/10/05 04:20:12;;;;;;;15.30;9.17;;;14.20;99.90;;;;;;5035331;28;20219;-71
2021/10/05 04:22:38;;;;;;;12.33;8.20;;;14.20;99.90;;;;;;5065321;28;20226;-71
2021/10/05 04:25:06;;;;;;;14.90;9.57;;;14.20;99.90;;;;;;5034548;28;20723;-72
2021/10/05 04:27:35;;;;;;;19.30;11.13;;;14.20;99.90;;;;;;5041467;28;20545;-71
2021/10/05 04:30:02;;;;;;;12.80;8.70;;;14.20;99.90;;;;;;5069275;28;20501;-71
2021/10/05 04:32:27;;;;;;;15.20;10.20;;;14.20;99.90;;;;;;5051557;28;20462;-71
2021/10/05 04:34:53;;;;;;;11.93;7.67;;;14.20;99.90;;;;;;5034547;28;20959;-71
2021/10/05 04:37:19;;;;;;;14.73;9.10;;;14.20;99.90;;;;;;5048892;28;20251;-71
2021/10/05 04:39:44;;;;;;;13.50;7.80;;;14.20;99.90;;;;;;5049714;28;20207;-72
2021/10/05 04:42:10;;;;;;;14.00;8.63;;;14.20;99.90;;;;;;5034473;28;20215;-71
2021/10/05 04:44:36;;;;;;;12.60;8.73;;;14.20;99.90;;;;;;5035456;28;20222;-71
2021/10/05 04:47:02;;;;;;;16.20;9.70;;;14.20;99.90;;;;;;5045536;28;20270;-71
2021/10/05 04:49:27;;;;;;;14.57;8.77;;;14.20;99.90;;;;;;5058476;28;20225;-71
2021/10/05 04:51:53;;;;;;;13.37;8.37;;;14.20;99.90;;;;;;5060094;28;20446;-71
2021/10/05 04:54:19;;;;;;;16.30;10.20;;;14.20;99.90;;;;;;5036446;28;20292;-70
2021/10/05 04:56:45;;;;;;;14.80;8.73;;;14.10;99.90;;;;;;5049057;28;20298;-71
2021/10/05 04:59:11;;;;;;;14.00;9.90;;;14.10;99.90;;;;;;5035096;28;20241;-71
2021/10/05 05:01:36;;;;;;;14.47;8.87;;;14.10;99.90;;;;;;5032842;28;20452;-71
2021/10/05 05:04:03;;;;;;;13.33;8.77;;;14.20;99.90;;;;;;5034851;28;20234;-70
2021/10/05 05:06:29;;;;;;;12.40;8.10;;;14.10;99.90;;;;;;5048170;28;20580;-72
2021/10/05 05:08:54;;;;;;;13.97;9.23;;;14.10;99.90;;;;;;5030808;28;21013;-72
2021/10/05 05:11:20;;;;;;;14.13;8.87;;;14.10;99.90;;;;;;5030896;28;20466;-71
2021/10/05 05:13:46;;;;;;;10.50;7.70;;;14.10;99.90;;;;;;5049838;28;20223;-72
2021/10/05 05:16:12;;;;;;;12.90;8.67;;;14.10;99.90;;;;;;5051080;28;20237;-72
2021/10/05 05:18:38;;;;;;;11.90;7.93;;;14.10;99.90;;;;;;5037623;28;20222;-71
2021/10/05 05:21:03;;;;;;;13.93;9.30;;;14.10;99.90;;;;;;5057661;28;20450;-71
2021/10/05 05:23:29;;;;;;;14.20;9.90;;;14.10;99.90;;;;;;5067926;28;20226;-70
2021/10/05 05:25:55;;;;;;;15.73;8.60;;;14.10;99.90;;;;;;5035946;28;20578;-70
2021/10/05 05:28:20;;;;;;;11.63;7.27;;;14.10;99.90;;;;;;5051267;28;20235;-71
2021/10/05 05:30:46;;;;;;;10.43;7.17;;;14.10;99.90;;;;;;5071720;28;20241;-71
2021/10/05 05:33:12;;;;;;;11.00;7.57;;;14.10;99.90;;;;;;5037658;28;20208;-71
2021/10/05 05:35:37;;;;;;;10.17;7.33;;;14.10;99.90;;;;;;5054210;28;20349;-70
2021/10/05 05:38:03;;;;;;;11.40;7.80;;;14.10;99.90;;;;;;5036055;28;20215;-72
2021/10/05 05:40:29;;;;;;;11.20;7.27;;;14.10;99.90;;;;;;5053358;28;20215;-71
2021/10/05 05:42:55;;;;;;;11.20;7.20;;;14.10;99.90;;;;;;5038065;28;20218;-70
2021/10/05 05:45:21;;;;;;;10.40;6.87;;;14.10;99.90;;;;;;5038482;28;20980;-71
2021/10/05 05:47:46;;;;;;;13.47;8.13;;;14.10;99.90;;;;;;5054208;28;20610;-71
2021/10/05 05:50:12;;;;;;;15.00;8.17;;;14.10;99.90;;;;;;5045180;28;20753;-71
2021/10/05 05:52:38;;;;;;;11.50;7.40;;;14.10;99.90;;;;;;5033975;28;20259;-71
2021/10/05 05:55:05;;;;;;;14.53;7.77;;;14.10;99.90;;;;;;5018482;28;20633;-71
2021/10/05 05:57:30;;;;;;;13.23;7.80;;;14.10;99.90;;;;;;5051902;28;20211;-71
2021/10/05 05:59:58;;;;;;;13.97;7.83;;;14.10;99.90;;;;;;5056612;28;20454;-71
2021/10/05 06:02:23;;;;;;;10.87;6.20;;;14.10;99.90;;;;;;5053497;28;20230;-71
2021/10/05 06:04:49;;;;;;;12.07;7.10;;;14.10;99.90;;;;;;5022641;28;20450;-72
2021/10/05 06:07:15;;;;;;;12.40;7.33;;;14.10;99.90;;;;;;5025923;28;20219;-71
2021/10/05 06:09:41;;;;;;;14.10;7.47;;;14.00;99.90;;;;;;5035526;28;20486;-71
2021/10/05 06:12:10;;;;;;;13.40;7.57;;;14.00;99.90;;;;;;5033912;28;20289;-71
2021/10/05 06:14:36;;;;;;;11.37;6.43;;;14.10;99.90;;;;;;5053160;28;20265;-71
2021/10/05 06:17:04;;;;;;;12.73;7.83;;;14.10;99.90;;;;;;5037981;28;20458;-71
2021/10/05 06:19:30;;;;;;;14.27;9.07;;;14.10;99.90;;;;;;5053644;28;20231;-71
2021/10/05 06:21:55;;;;;;;11.23;7.37;;;14.10;99.90;;;;;;5032473;28;20502;-71
2021/10/05 06:24:22;;;;;;;14.97;8.73;;;14.10;99.90;;;;;;5054193;28;20536;-71
2021/10/05 06:26:47;;;;;;;11.97;8.57;;;14.10;99.90;;;;;;5069336;28;20227;-72
2021/10/05 06:29:13;;;;;;;11.97;7.40;;;14.10;99.90;;;;;;5070247;28;20675;-71
2021/10/05 06:31:39;;;;;;;11.90;7.97;;;14.10;99.90;;;;;;5068485;28;20234;-71
2021/10/05 06:34:05;;;;;;;13.27;9.27;;;14.10;99.90;;;;;;5037622;28;20231;-71
2021/10/05 06:36:31;;;;;;;11.17;7.80;;;14.10;99.90;;;;;;5038107;28;20223;-71
2021/10/05 06:38:58;;;;;;;12.13;7.87;;;14.10;99.90;;;;;;5049767;28;20223;-69
2021/10/05 06:41:24;;;;;;;13.97;9.20;;;14.10;99.90;;;;;;5043193;28;20713;-70
2021/10/05 06:43:50;;;;;;;10.60;7.10;;;14.10;99.90;;;;;;5033210;28;20453;-71
2021/10/05 06:46:15;;;;;;;14.20;9.03;;;14.10;99.90;;;;;;5023330;28;20457;-71
2021/10/05 06:48:41;;;;;;;12.90;7.97;;;14.10;99.90;;;;;;5032183;28;20231;-71
2021/10/05 06:51:07;;;;;;;12.03;7.53;;;14.10;99.90;;;;;;5036299;28;20565;-71
2021/10/05 06:53:32;;;;;;;11.07;7.27;;;14.10;99.90;;;;;;5052872;28;20223;-71
2021/10/05 06:55:58;;;;;;;11.33;8.23;;;14.10;99.90;;;;;;5036159;28;20214;-72
2021/10/05 06:58:24;;;;;;;13.53;7.87;;;14.10;99.90;;;;;;5044875;28;20658;-71
2021/10/05 07:00:49;;;;;;;11.80;8.00;;;14.10;99.90;;;;;;5068675;28;20215;-71
2021/10/05 07:03:15;;;;;;;11.70;6.80;;;14.10;99.90;;;;;;5034717;28;20215;-72
2021/10/05 07:05:41;;;;;;;9.87;5.70;;;14.10;99.90;;;;;;5033098;28;20341;-71
2021/10/05 07:08:08;;;;;;;7.27;4.90;;;14.10;99.90;;;;;;5037945;28;20228;-71
2021/10/05 07:10:36;;;;;;;6.50;5.20;;;14.10;99.90;;;;;;5027318;28;20766;-71
2021/10/05 07:13:02;;;;;;;7.43;5.57;;;14.00;99.90;;;;;;5036482;28;20880;-70
2021/10/05 07:15:28;;;;;;;6.10;5.27;;;14.10;99.90;;;;;;5035457;28;20450;-71
2021/10/05 07:17:55;;;;;;;6.30;4.50;;;14.10;99.90;;;;;;5064813;28;20585;-71
2021/10/05 07:20:21;;;;;;;5.63;4.73;;;14.10;99.90;;;;;;5035547;28;20252;-70
2021/10/05 07:22:47;;;;;;;7.70;4.90;;;14.10;99.90;;;;;;5035262;28;20892;-71
2021/10/05 07:25:13;;;;;;;7.00;5.47;;;14.10;99.90;;;;;;5069837;28;20777;-71
2021/10/05 07:27:38;;;;;;;6.00;4.00;;;14.10;99.90;;;;;;5068385;28;20540;-72
2021/10/05 07:30:06;;;;;;;7.40;5.00;;;14.10;99.90;;;;;;5052144;28;20227;-71
2021/10/05 07:32:32;;;;;;;7.53;5.00;;;14.10;99.90;;;;;;5043471;28;20203;-71
2021/10/05 07:34:58;;;;;;;7.47;5.27;;;14.10;99.90;;;;;;5051745;28;20469;-72
2021/10/05 07:37:25;;;;;;;6.70;4.80;;;14.10;99.90;;;;;;5058613;28;20466;-71
2021/10/05 07:39:50;;;;;;;7.70;5.30;;;14.10;99.90;;;;;;5030336;28;20268;-72
2021/10/05 07:42:20;;;;;;;6.40;5.00;;;14.10;99.90;;;;;;5049762;28;20846;-71
2021/10/05 07:44:46;;;;;;;7.47;4.60;;;14.10;99.90;;;;;;5044128;28;20219;-70
2021/10/05 07:47:12;;;;;;;8.60;5.30;;;14.10;99.90;;;;;;5036080;28;20571;-72
2021/10/05 07:49:38;;;;;;;6.00;4.60;;;14.10;99.90;;;;;;5024844;28;20529;-71
2021/10/05 07:52:04;;;;;;;6.63;4.53;;;14.10;99.90;;;;;;5050510;28;20234;-71
2021/10/05 07:54:29;;;;;;;6.00;4.17;;;14.20;99.90;;;;;;5051363;28;20233;-72
2021/10/05 07:56:58;;;;;;;6.60;4.97;;;14.20;99.90;;;;;;5032450;28;20490;-70
2021/10/05 07:59:24;;;;;;;7.13;4.83;;;14.20;99.90;;;;;;5049404;28;20220;-70
2021/10/05 08:01:51;;;;;;;7.77;4.60;;;14.10;99.90;;;;;;5060978;28;20452;-71
2021/10/05 08:04:18;;;;;;;6.97;5.60;;;14.10;99.90;;;;;;5035944;28;20226;-71
2021/10/05 08:06:44;;;;;;;9.83;6.30;;;14.20;99.90;;;;;;5063022;28;20473;-71
2021/10/05 08:09:13;;;;;;;8.30;6.13;;;14.20;99.90;;;;;;5049023;28;21001;-71
2021/10/05 08:11:39;;;;;;;7.70;5.60;;;14.20;99.90;;;;;;5032505;28;20464;-71
2021/10/05 08:14:05;;;;;;;9.10;5.40;;;14.20;99.90;;;;;;5025036;28;20450;-70
2021/10/05 08:16:30;;;;;;;8.50;5.90;;;14.20;99.90;;;;;;5028853;28;20703;-71
2021/10/05 08:19:00;;;;;;;8.07;6.70;;;14.20;99.90;;;;;;5016369;28;20228;-69
2021/10/05 08:21:27;;;;;;;10.37;6.93;;;14.20;99.90;;;;;;5044000;28;20219;-71
2021/10/05 08:23:53;;;;;;;11.70;7.90;;;14.20;99.90;;;;;;5060861;28;20457;-70
2021/10/05 08:26:20;;;;;;;11.77;8.10;;;14.20;99.90;;;;;;5031202;28;20477;-71
2021/10/05 08:28:46;;;;;;;13.60;7.70;;;14.20;99.90;;;;;;5065982;28;20530;-71
2021/10/05 08:31:12;;;;;;;11.40;7.70;;;14.20;99.90;;;;;;5030502;28;20507;-71
2021/10/05 08:33:38;;;;;;;11.87;7.80;;;14.20;99.90;;;;;;5061904;28;20448;-71
2021/10/05 08:36:04;;;;;;;12.30;7.50;;;14.20;99.90;;;;;;5034839;28;20284;-71
2021/10/05 08:38:29;;;;;;;10.07;6.80;;;14.20;99.90;;;;;;5047573;28;20330;-71
2021/10/05 08:40:55;;;;;;;14.83;8.70;;;14.20;99.90;;;;;;5050082;28;20479;-72
2021/10/05 08:43:22;;;;;;;14.93;7.40;;;14.20;99.90;;;;;;5012589;28;20624;-71
2021/10/05 08:45:48;;;;;;;13.57;8.50;;;14.20;99.90;;;;;;5025452;28;20250;-71
2021/10/05 08:48:15;;;;;;;12.13;8.90;;;14.20;99.90;;;;;;5045705;28;20501;-71
2021/10/05 08:50:42;;;;;;;11.37;7.70;;;14.30;99.90;;;;;;5046693;28;20763;-70
2021/10/05 08:53:08;;;;;;;13.43;8.87;;;14.30;99.90;;;;;;5035639;28;20462;-71
2021/10/05 08:55:34;;;;;;;15.20;8.83;;;14.30;99.90;;;;;;5035090;28;20533;-71
2021/10/05 08:58:00;;;;;;;13.77;8.93;;;14.30;99.90;;;;;;5072723;28;20886;-71
2021/10/05 09:00:32;;;;;;;13.63;9.53;;;14.30;99.90;;;;;;5037821;28;20225;-70
2021/10/05 09:02:58;;;;;;;12.13;7.80;;;14.40;99.90;;;;;;5028574;28;20227;-72
2021/10/05 09:05:26;;;;;;;12.27;8.20;;;14.40;99.90;;;;;;5033659;28;20454;-71
2021/10/05 09:07:56;;;;;;;11.33;7.93;;;14.40;99.90;;;;;;5030209;28;20765;-71
2021/10/05 09:10:26;;;;;;;11.30;7.87;;;14.40;99.90;;;;;;5038319;28;20469;-71
2021/10/05 09:12:52;;;;;;;10.80;7.63;;;14.40;99.90;;;;;;5039821;28;20447;-71
2021/10/05 09:15:20;;;;;;;9.60;7.13;;;14.40;99.90;;;;;;5052818;28;20462;-71
2021/10/05 09:17:50;;;;;;;9.67;8.00;;;14.40;99.90;;;;;;5023134;28;20215;-71
2021/10/05 09:20:22;;;;;;;10.10;7.47;;;14.40;99.90;;;;;;5037774;28;20798;-71
2021/10/05 09:23:08;;;;;;;11.33;7.93;;;14.50;99.90;;;;;;5044976;28;20475;-72
2021/10/05 09:25:38;;;;;;;8.20;6.60;;;14.50;99.90;;;;;;5034645;28;20472;-72
2021/10/05 09:28:33;;;;;;;8.90;6.70;;;14.50;99.90;;;;;;5072042;28;20524;-71
2021/10/05 09:31:08;;;;;;;11.60;7.83;;;14.60;99.90;;;;;;5034207;28;20518;-71
2021/10/05 09:33:35;;;;;;;7.87;7.00;;;14.60;99.90;;;;;;5060817;28;20971;-70
2021/10/05 09:36:01;;;;;;;7.80;5.40;;;14.70;99.90;;;;;;5050519;28;20461;-71
2021/10/05 09:38:29;;;;;;;7.33;6.23;;;14.70;99.90;;;;;;5035737;28;20464;-71
2021/10/05 09:41:07;;;;;;;5.83;5.00;;;14.80;99.90;;;;;;5056911;28;20985;-71
2021/10/05 09:43:33;;;;;;;7.27;5.10;;;14.80;99.90;;;;;;5031984;28;20449;-71
2021/10/05 09:46:19;;;;;;;8.87;5.37;;;14.90;99.90;;;;;;5051798;28;20452;-71
2021/10/05 09:48:46;;;;;;;6.97;5.10;;;14.90;99.90;;;;;;5036269;28;20472;-71
2021/10/05 09:51:21;;;;;;;4.67;4.23;;;15.00;99.90;;;;;;5049373;28;20484;-71
2021/10/05 09:53:47;;;;;;;4.50;4.10;;;15.00;99.90;;;;;;5034196;28;20437;-70
2021/10/05 09:56:14;;;;;;;4.90;3.63;;;15.00;99.90;;;;;;5030363;28;20464;-71
2021/10/05 09:58:40;;;;;;;4.07;3.60;;;15.00;99.90;;;;;;5069096;28;20765;-71
2021/10/05 10:01:06;;;;;;;3.80;3.43;;;15.00;99.90;;;;;;5041199;28;20458;-71
2021/10/05 10:03:33;;;;;;;6.37;3.67;;;15.00;99.90;;;;;;5049869;28;20457;-71
2021/10/05 10:06:00;;;;;;;4.00;3.53;;;15.00;99.90;;;;;;5032639;28;20304;-71
2021/10/05 10:08:29;;;;;;;4.40;3.17;;;15.00;99.90;;;;;;5041739;28;20457;-70
2021/10/05 10:10:55;;;;;;;2.97;2.77;;;15.10;99.90;;;;;;5068540;28;20465;-71
2021/10/05 10:13:21;;;;;;;3.73;2.73;;;15.10;99.90;;;;;;5030973;28;20540;-71
2021/10/05 10:15:48;;;;;;;3.10;2.87;;;15.20;99.90;;;;;;5046301;28;20223;-71
2021/10/05 10:18:16;;;;;;;3.40;2.70;;;15.20;99.90;;;;;;5034409;28;20215;-71
2021/10/05 10:20:55;;;;;;;3.07;2.77;;;15.30;99.90;;;;;;5033703;28;20450;-71
2021/10/05 10:23:24;;;;;;;2.60;2.40;;;15.40;99.90;;;;;;5062510;28;20520;-71
2021/10/05 10:26:17;;;;;;;3.20;2.30;;;15.50;99.90;;;;;;5047861;28;20446;-70
2021/10/05 10:28:46;;;;;;;2.97;2.03;;;15.50;99.90;;;;;;5048442;28;20538;-70
2021/10/05 10:31:15;;;;;;;2.27;1.83;;;15.60;99.90;;;;;;5041717;28;20450;-71
2021/10/05 10:33:46;;;;;;;2.10;1.93;;;15.60;99.90;;;;;;5023700;28;20470;-71
2021/10/05 10:36:13;;;;;;;2.30;2.10;;;15.60;99.90;;;;;;5047856;28;20468;-71
2021/10/05 10:38:46;;;;;;;1.87;1.77;;;15.60;99.90;;;;;;5048997;28;20464;-71
2021/10/05 10:41:19;;;;;;;1.87;1.77;;;15.60;99.90;;;;;;5033921;28;20462;-71
2021/10/05 10:44:02;;;;;;;2.00;1.83;;;15.70;99.90;;;;;;5031758;28;20450;-72
2021/10/05 10:46:35;;;;;;;2.17;1.97;;;15.70;99.90;;;;;;5042060;28;20457;-72
2021/10/05 10:49:13;;;;;;;2.20;1.60;;;15.70;99.90;;;;;;5034764;28;20535;-71
2021/10/05 10:51:41;;;;;;;2.20;1.60;;;15.80;99.90;;;;;;5048519;28;20462;-71
2021/10/05 10:54:15;;;;;;;1.50;1.40;;;15.80;99.90;;;;;;5033949;28;20466;-70
2021/10/05 10:56:43;;;;;;;1.50;1.40;;;15.80;99.90;;;;;;5041814;28;20468;-71
2021/10/05 10:59:12;;;;;;;1.40;1.30;;;15.90;99.90;;;;;;5050526;28;20508;-70
2021/10/05 11:01:37;;;;;;;1.60;1.47;;;15.90;99.90;;;;;;5028776;28;20473;-70
2021/10/05 11:04:05;;;;;;;1.30;1.20;;;15.90;99.90;;;;;;5017293;28;20978;-71
2021/10/05 11:06:30;;;;;;;1.70;1.60;;;15.90;99.90;;;;;;5046550;28;20273;-71
2021/10/05 11:08:57;;;;;;;1.60;1.50;;;16.00;99.90;;;;;;5037367;28;20466;-72
2021/10/05 11:11:42;;;;;;;1.40;1.30;;;16.00;99.90;;;;;;5050220;28;20227;-70
2021/10/05 11:14:14;;;;;;;1.53;1.43;;;16.00;99.90;;;;;;5046904;28;20454;-71
2021/10/05 11:16:41;;;;;;;1.97;1.30;;;16.00;99.90;;;;;;5019828;28;20478;-71
2021/10/05 11:19:14;;;;;;;1.30;1.20;;;16.00;99.90;;;;;;5029220;28;20512;-71
2021/10/05 11:21:42;;;;;;;1.30;1.13;;;16.00;99.90;;;;;;5024802;28;21083;-70
2021/10/05 11:24:10;;;;;;;1.30;1.20;;;16.10;99.90;;;;;;5054164;28;21180;-70
2021/10/05 11:26:42;;;;;;;1.00;0.90;;;16.10;99.90;;;;;;5058178;28;20510;-71
2021/10/05 11:29:09;;;;;;;2.70;1.20;;;16.10;99.90;;;;;;5040304;28;20523;-71
2021/10/05 11:31:49;;;;;;;1.00;1.00;;;16.20;99.90;;;;;;5038315;28;20544;-70
2021/10/05 11:34:17;;;;;;;1.40;1.10;;;16.20;99.90;;;;;;5041306;28;20503;-70
2021/10/05 11:36:42;;;;;;;1.63;1.20;;;16.20;99.90;;;;;;5059397;28;20457;-71
2021/10/05 11:39:09;;;;;;;1.63;1.30;;;16.20;99.90;;;;;;5062494;28;20485;-70
2021/10/05 11:41:41;;;;;;;0.90;0.80;;;16.30;99.90;;;;;;5046163;28;20286;-70
2021/10/05 11:44:18;;;;;;;1.10;1.03;;;16.40;99.90;;;;;;5031957;28;20450;-70
2021/10/05 11:47:04;;;;;;;1.70;0.97;;;16.40;99.90;;;;;;5032479;28;20465;-71
2021/10/05 11:49:35;;;;;;;1.00;1.00;;;16.40;99.90;;;;;;5059027;28;20480;-70
2021/10/05 11:52:03;;;;;;;1.20;1.10;;;16.50;99.90;;;;;;5031402;28;20458;-71
2021/10/05 11:54:33;;;;;;;0.87;0.87;;;16.50;99.90;;;;;;5053362;28;20457;-71
2021/10/05 11:57:06;;;;;;;1.00;1.00;;;16.60;99.90;;;;;;5043880;28;20514;-70
2021/10/05 11:59:34;;;;;;;1.07;0.90;;;16.70;99.90;;;;;;5042267;28;20457;-71
2021/10/05 12:02:10;;;;;;;1.53;1.00;;;16.90;99.90;;;;;;5032431;28;20602;-71
2021/10/05 12:04:38;;;;;;;1.03;0.93;;;17.10;99.90;;;;;;5032339;28;20587;-70
2021/10/05 12:07:08;;;;;;;1.00;0.90;;;17.20;99.90;;;;;;5064230;28;20964;-71
2021/10/05 12:09:35;;;;;;;0.80;0.80;;;17.30;99.90;;;;;;5031645;28;21038;-70
2021/10/05 12:12:18;;;;;;;1.10;0.90;;;17.50;99.90;;;;;;5043912;28;20462;-71
2021/10/05 12:14:51;;;;;;;3.20;1.10;;;17.60;99.90;;;;;;5044659;28;20478;-70
2021/10/05 12:17:17;;;;;;;1.60;1.47;;;17.60;99.90;;;;;;5033640;28;20981;-71
2021/10/05 12:20:02;;;;;;;4.77;1.30;;;17.80;99.90;;;;;;5042757;28;20545;-70
2021/10/05 12:22:31;;;;;;;0.90;0.90;;;17.90;99.90;;;;;;5067426;28;20461;-71
2021/10/05 12:25:04;;;;;;;1.17;1.03;;;18.00;99.90;;;;;;5031822;28;20999;-71
2021/10/05 12:27:35;;;;;;;1.10;0.90;;;18.10;99.90;;;;;;5056827;28;20470;-71
2021/10/05 12:30:00;;;;;;;1.03;0.80;;;18.20;99.90;;;;;;5015310;28;20458;-70
2021/10/05 12:32:32;;;;;;;1.60;1.23;;;18.40;99.90;;;;;;5065122;28;20948;-70
2021/10/05 12:34:59;;;;;;;1.20;1.10;;;18.50;99.90;;;;;;5047940;28;20667;-71
2021/10/05 12:37:30;;;;;;;1.27;1.17;;;18.60;99.90;;;;;;5065430;28;20477;-71
2021/10/05 12:40:14;;;;;;;2.00;1.07;;;18.60;99.90;;;;;;5050022;28;20449;-71